Time;durP1;ratioP1;P1;durP2;ratioP2;P2;SDS_P1;SDS_P2;PMS_P1;PMS_P2;Temp;Humidity;BMP_temperature;BMP_pressure;BME280_temperature;BME280_humidity;BME280_pressure;Samples;Min_cycle;Max_cycle;Signal;HPM_P1;HPM_P2
2022/04/09 00:02:12;;;;;;;;;3.00;2.00;;;;;22.01;67.75;100726.13;5073769;28;48510;-63
2022/04/09 00:04:38;;;;;;;;;3.00;2.00;;;;;22.03;67.40;100731.44;5079789;28;49248;-63
2022/04/09 00:07:03;;;;;;;;;1.33;1.33;;;;;22.02;67.79;100724.31;5080037;28;45318;-63
2022/04/09 00:09:29;;;;;;;;;1.67;1.67;;;;;22.02;67.59;100743.13;5079965;28;45458;-63
2022/04/09 00:11:54;;;;;;;;;4.00;1.00;;;;;22.00;67.31;100743.19;5075906;28;46514;-65
2022/04/09 00:14:20;;;;;;;;;2.00;2.00;;;;;22.03;67.21;100753.81;5080034;28;45382;-62
2022/04/09 00:16:45;;;;;;;;;2.00;2.00;;;;;22.03;67.10;100747.56;5080037;28;45651;-64
2022/04/09 00:19:10;;;;;;;;;2.33;2.00;;;;;21.98;67.09;100739.66;5066557;28;45560;-66
2022/04/09 00:21:36;;;;;;;;;2.33;2.00;;;;;22.00;67.46;100747.66;5068805;28;51033;-65
2022/04/09 00:24:02;;;;;;;;;2.00;2.00;;;;;22.01;67.16;100752.13;5057996;28;51369;-64
2022/04/09 00:26:27;;;;;;;;;1.33;1.33;;;;;22.01;67.50;100750.31;5059912;28;45211;-64
2022/04/09 00:28:52;;;;;;;;;2.00;2.00;;;;;21.99;67.38;100749.47;5060856;28;45434;-63
2022/04/09 00:31:18;;;;;;;;;2.67;2.00;;;;;21.99;67.73;100757.53;5061629;28;52233;-66
2022/04/09 00:33:43;;;;;;;;;2.00;2.00;;;;;22.01;67.72;100757.50;5059381;28;45301;-63
2022/04/09 00:36:09;;;;;;;;;1.00;1.00;;;;;21.97;67.76;100754.91;5059239;28;47886;-63
2022/04/09 00:38:34;;;;;;;;;1.33;1.33;;;;;22.00;67.38;100762.00;5062038;28;45285;-63
2022/04/09 00:41:00;;;;;;;;;1.00;1.00;;;;;21.97;67.16;100762.97;5079418;28;46192;-63
2022/04/09 00:43:25;;;;;;;;;1.00;1.00;;;;;22.00;67.36;100771.84;5061857;28;45458;-63
2022/04/09 00:45:51;;;;;;;;;1.00;1.00;;;;;21.99;67.29;100776.38;5078799;28;45583;-64
2022/04/09 00:48:21;;;;;;;;;1.00;1.00;;;;;21.98;67.58;100777.31;5079712;28;45387;-63
2022/04/09 00:50:47;;;;;;;;;2.00;2.00;;;;;22.00;67.22;100782.63;5069887;28;46080;-66
2022/04/09 00:53:14;;;;;;;;;1.00;1.00;;;;;21.97;67.25;100773.75;5059092;28;45392;-66
2022/04/09 00:58:26;;;;;;;;;2.00;1.00;;;;;21.99;67.31;100781.75;5061736;28;45196;-63
2022/04/09 01:00:51;;;;;;;;;1.00;1.00;;;;;22.01;67.15;100793.34;5042732;28;45745;-64
2022/04/09 01:03:18;;;;;;;;;1.00;1.00;;;;;22.01;67.44;100789.78;5079156;28;45307;-65
2022/04/09 01:05:44;;;;;;;;;0.67;0.67;;;;;22.00;67.39;100786.22;5079402;28;45383;-64
2022/04/09 01:08:09;;;;;;;;;0.67;0.67;;;;;22.00;66.97;100796.06;5061193;28;45427;-64
2022/04/09 01:10:35;;;;;;;;;1.00;1.00;;;;;22.03;67.59;100806.72;5078652;28;45315;-64
2022/04/09 01:13:01;;;;;;;;;1.00;1.00;;;;;22.03;67.51;100802.22;5060839;28;45358;-64
2022/04/09 01:15:26;;;;;;;;;1.00;1.00;;;;;22.01;67.38;100801.41;5079291;28;45220;-63
2022/04/09 01:17:53;;;;;;;;;2.33;1.00;;;;;22.02;67.12;100795.09;5079392;28;45632;-64
2022/04/09 01:20:20;;;;;;;;;2.00;1.00;;;;;22.04;67.32;100800.41;5078490;28;45639;-63
2022/04/09 01:22:46;;;;;;;;;3.00;1.00;;;;;22.03;67.35;100798.66;5040786;28;45525;-65
2022/04/09 01:25:11;;;;;;;;;2.00;1.00;;;;;22.06;67.02;100809.31;5058713;28;45384;-63
2022/04/09 01:27:37;;;;;;;;;1.00;1.00;;;;;22.04;67.67;100805.78;5069038;28;45528;-64
2022/04/09 01:30:03;;;;;;;;;1.00;1.00;;;;;22.06;67.71;100822.75;5060221;28;45647;-64
2022/04/09 01:32:29;;;;;;;;;1.00;1.00;;;;;22.07;67.30;100827.19;5078903;28;45353;-65
2022/04/09 01:34:54;;;;;;;;;0.00;0.00;;;;;22.06;67.63;100844.25;5078603;28;47151;-63
2022/04/09 01:37:19;;;;;;;;;0.33;0.33;;;;;22.07;67.42;100848.69;5078728;28;45315;-63
2022/04/09 01:39:45;;;;;;;;;0.00;0.00;;;;;22.08;67.30;100851.31;5066089;28;46717;-63
2022/04/09 01:42:11;;;;;;;;;0.00;0.00;;;;;22.08;67.63;100851.31;5067609;28;45478;-63
2022/04/09 01:44:37;;;;;;;;;1.00;1.00;;;;;22.09;67.59;100855.75;5064604;28;45298;-64
2022/04/09 01:47:04;;;;;;;;;1.00;1.00;;;;;22.08;67.59;100856.69;5058740;28;45384;-66
2022/04/09 01:49:29;;;;;;;;;0.00;0.00;;;;;22.10;67.47;100862.00;5067283;28;46680;-63
2022/04/09 01:51:55;;;;;;;;;0.00;0.00;;;;;22.08;67.59;100856.69;5069120;28;45497;-64
2022/04/09 01:54:20;;;;;;;;;1.00;1.00;;;;;22.09;67.65;100868.34;5058132;28;45699;-64
2022/04/09 01:56:45;;;;;;;;;1.00;1.00;;;;;22.09;67.07;100869.22;5040476;28;45418;-64
2022/04/09 01:59:11;;;;;;;;;0.00;0.00;;;;;22.11;67.54;100870.09;5059411;28;46343;-67
2022/04/09 02:01:36;;;;;;;;;0.00;0.00;;;;;22.09;67.11;100854.88;5058060;28;49389;-63
2022/04/09 02:04:02;;;;;;;;;0.00;0.00;;;;;22.09;67.43;100849.50;5070415;28;45626;-65
2022/04/09 02:06:32;;;;;;;;;1.00;1.00;;;;;22.09;67.16;100857.56;5078314;28;45423;-64
2022/04/09 02:08:58;;;;;;;;;0.00;0.00;;;;;22.10;67.22;100853.94;5078156;28;47647;-65
2022/04/09 02:11:23;;;;;;;;;0.00;0.00;;;;;22.07;67.29;100846.00;5078049;28;45353;-64
2022/04/09 02:13:52;;;;;;;;;0.00;0.00;;;;;22.09;67.58;100853.06;5078391;28;45847;-65
2022/04/09 02:16:18;;;;;;;;;0.00;0.00;;;;;22.08;67.35;100856.69;5078200;28;45499;-63
2022/04/09 02:18:43;;;;;;;;;0.00;0.00;;;;;22.06;67.53;100845.13;5075479;28;45765;-64
2022/04/09 02:21:10;;;;;;;;;0.00;0.00;;;;;22.07;67.63;100844.19;5046278;28;45296;-63
2022/04/09 02:23:36;;;;;;;;;0.33;0.33;;;;;22.07;67.18;100854.06;5077081;28;45402;-65
2022/04/09 02:26:02;;;;;;;;;0.67;0.67;;;;;22.04;67.16;100852.34;5078201;28;45362;-65
2022/04/09 02:28:27;;;;;;;;;0.00;0.00;;;;;22.07;67.17;100851.38;5063979;28;45993;-64
2022/04/09 02:30:53;;;;;;;;;0.00;0.00;;;;;22.04;67.10;100852.34;5072010;28;45269;-63
2022/04/09 02:33:18;;;;;;;;;0.00;0.00;;;;;22.06;67.14;100865.78;5064126;28;45229;-64
2022/04/09 02:35:44;;;;;;;;;0.00;0.00;;;;;22.04;66.75;100862.25;5058007;28;45209;-64
2022/04/09 02:38:10;;;;;;;;;0.00;0.00;;;;;22.05;67.05;100866.69;5057260;28;47351;-64
2022/04/09 02:43:10;;;;;;;;;0.00;0.00;;;;;22.05;67.18;100877.44;5034162;28;45360;-66
2022/04/09 02:45:35;;;;;;;;;0.00;0.00;;;;;22.03;67.34;100879.31;5037387;28;45515;-63
2022/04/09 02:48:00;;;;;;;;;1.00;0.00;;;;;22.05;67.42;100885.50;5037217;28;45522;-66
2022/04/09 02:50:26;;;;;;;;;1.00;0.00;;;;;22.04;67.43;100889.13;5034472;28;45305;-62
2022/04/09 02:52:51;;;;;;;;;0.00;0.00;;;;;22.01;67.04;100879.38;5036944;28;45995;-64
2022/04/09 02:55:17;;;;;;;;;0.00;0.00;;;;;22.01;66.71;100883.88;5037832;28;45468;-65
2022/04/09 02:57:42;;;;;;;;;1.33;0.00;;;;;22.00;66.94;100883.00;5037131;28;45922;-63
2022/04/09 03:00:13;;;;;;;;;0.00;0.00;;;;;22.04;67.34;100892.69;5028022;28;45471;-63
2022/04/09 03:02:40;;;;;;;;;1.00;1.00;;;;;22.05;67.41;100907.03;5036830;28;45239;-63
2022/04/09 03:05:06;;;;;;;;;0.00;0.00;;;;;22.09;67.31;100911.38;5049424;28;45505;-65
2022/04/09 03:07:32;;;;;;;;;0.00;0.00;;;;;22.08;66.93;100915.88;5036364;28;47470;-63
2022/04/09 03:09:57;;;;;;;;;0.00;0.00;;;;;22.11;67.40;100914.94;5036999;28;45291;-63
2022/04/09 03:12:23;;;;;;;;;0.00;0.00;;;;;22.12;66.77;100922.06;5036716;28;49463;-63
2022/04/09 03:14:48;;;;;;;;;0.00;0.00;;;;;22.13;67.16;100915.75;5037399;28;45295;-63
2022/04/09 03:17:13;;;;;;;;;0.00;0.00;;;;;22.11;67.11;100915.81;5036710;28;53337;-66
2022/04/09 03:19:39;;;;;;;;;0.00;0.00;;;;;22.11;67.13;100920.31;5036058;28;45694;-63
2022/04/09 03:22:04;;;;;;;;;0.33;0.00;;;;;22.11;66.69;100923.88;5037091;28;45347;-63
2022/04/09 03:24:30;;;;;;;;;0.00;0.00;;;;;22.13;66.43;100931.88;5036719;28;52850;-63
2022/04/09 03:26:55;;;;;;;;;0.00;0.00;;;;;22.11;66.96;100926.56;5036540;28;47395;-63
2022/04/09 03:29:20;;;;;;;;;0.00;0.00;;;;;22.09;66.58;100927.50;5034388;28;55595;-64
2022/04/09 03:31:46;;;;;;;;;0.00;0.00;;;;;22.11;66.85;100944.50;5035730;28;45269;-63
2022/04/09 03:34:11;;;;;;;;;0.00;0.00;;;;;22.10;66.56;100931.94;5039051;28;45277;-63
2022/04/09 03:36:38;;;;;;;;;0.00;0.00;;;;;22.09;66.92;100940.94;5040356;28;47255;-64
2022/04/09 03:39:04;;;;;;;;;0.00;0.00;;;;;22.09;66.69;100951.69;5033887;28;45226;-63
2022/04/09 03:41:29;;;;;;;;;0.00;0.00;;;;;22.08;66.71;100952.63;5029551;28;45174;-63
2022/04/09 03:43:55;;;;;;;;;0.00;0.00;;;;;22.08;66.71;100953.50;5030381;28;45193;-62
2022/04/09 03:46:20;;;;;;;;;0.00;0.00;;;;;22.06;66.45;100949.13;5037438;28;46696;-62
2022/04/09 03:48:45;;;;;;;;;0.00;0.00;;;;;22.06;66.58;100955.41;5034579;28;57846;-62
2022/04/09 03:51:12;;;;;;;;;0.00;0.00;;;;;22.05;66.36;100952.72;5039696;28;45497;-62
2022/04/09 03:53:38;;;;;;;;;2.00;0.67;;;;;22.06;66.69;100966.16;5039413;28;45566;-65
2022/04/09 03:56:04;;;;;;;;;0.00;0.00;;;;;22.05;66.63;100966.19;5039975;28;46587;-63
2022/04/09 03:58:29;;;;;;;;;0.00;0.00;;;;;22.05;66.35;100966.19;5036356;28;45685;-64
2022/04/09 04:00:55;;;;;;;;;0.00;0.00;;;;;22.05;66.45;100976.94;5039030;28;45844;-62
2022/04/09 04:03:20;;;;;;;;;1.00;1.00;;;;;22.05;66.38;100971.56;5045309;28;45376;-65
2022/04/09 04:05:49;;;;;;;;;0.00;0.00;;;;;22.05;66.68;100966.19;5045911;28;47377;-62
2022/04/09 04:08:15;;;;;;;;;2.00;0.00;;;;;22.04;66.17;100968.00;5033533;28;45348;-64
2022/04/09 04:10:40;;;;;;;;;0.00;0.00;;;;;22.03;66.55;100962.69;5039172;28;46016;-64
2022/04/09 04:13:06;;;;;;;;;0.00;0.00;;;;;22.06;66.11;100960.78;5038917;28;45505;-63
2022/04/09 04:15:35;;;;;;;;;0.00;0.00;;;;;22.04;65.89;100954.53;5037844;28;46469;-63
2022/04/09 04:18:00;;;;;;;;;0.67;0.00;;;;;22.05;66.23;100956.31;5037326;28;45376;-65
2022/04/09 04:20:26;;;;;;;;;0.00;0.00;;;;;22.05;66.48;100956.31;5036533;28;45434;-63
2022/04/09 04:22:53;;;;;;;;;0.00;0.00;;;;;22.05;66.63;100956.31;5038984;28;45575;-63
2022/04/09 04:25:18;;;;;;;;;0.00;0.00;;;;;22.06;66.10;100949.13;5039564;28;48373;-65
2022/04/09 04:27:46;;;;;;;;;0.00;0.00;;;;;22.05;66.22;100961.72;5039441;28;45206;-63
2022/04/09 04:30:12;;;;;;;;;0.00;0.00;;;;;22.08;66.44;100966.09;5037512;28;45507;-63
2022/04/09 04:32:37;;;;;;;;;0.00;0.00;;;;;22.06;66.01;100954.50;5039254;28;45425;-62
2022/04/09 04:35:03;;;;;;;;;0.00;0.00;;;;;22.07;65.90;100961.66;5039001;28;62582;-65
2022/04/09 04:37:39;;;;;;;;;0.00;0.00;;;;;22.08;65.84;100968.78;5035756;28;45419;-65
2022/04/09 04:40:05;;;;;;;;;0.00;0.00;;;;;22.07;66.28;100962.53;5027197;28;45297;-62
2022/04/09 04:42:31;;;;;;;;;1.00;1.00;;;;;22.07;65.93;100956.28;5035292;28;45426;-62
2022/04/09 04:44:56;;;;;;;;;0.00;0.00;;;;;22.07;66.00;100959.84;5037730;28;63008;-64
2022/04/09 04:47:21;;;;;;;;;0.00;0.00;;;;;22.08;65.83;100968.78;5039040;28;45418;-63
2022/04/09 04:49:47;;;;;;;;;0.00;0.00;;;;;22.08;65.47;100980.41;5037773;28;56751;-63
2022/04/09 04:52:12;;;;;;;;;1.00;1.00;;;;;22.07;66.11;100975.97;5038600;28;56864;-62
2022/04/09 04:54:38;;;;;;;;;1.00;0.00;;;;;22.09;66.09;100973.22;5038296;28;59142;-62
2022/04/09 04:57:03;;;;;;;;;0.00;0.00;;;;;22.09;65.70;100982.16;5039115;28;45288;-63
2022/04/09 04:59:28;;;;;;;;;0.33;0.00;;;;;22.08;65.82;100987.59;5038786;28;45242;-62
2022/04/09 05:01:54;;;;;;;;;0.00;0.00;;;;;22.09;65.75;100986.66;5038768;28;53541;-63
2022/04/09 05:04:19;;;;;;;;;0.00;0.00;;;;;22.09;65.58;100995.59;5049812;28;60815;-62
2022/04/09 05:06:45;;;;;;;;;2.00;0.67;;;;;22.09;65.61;100986.66;5038880;28;45278;-64
2022/04/09 05:09:13;;;;;;;;;0.00;0.00;;;;;22.10;65.60;100988.41;5032086;28;45343;-63
2022/04/09 05:11:39;;;;;;;;;1.00;1.00;;;;;22.10;65.50;100988.41;5038976;28;45526;-63
2022/04/09 05:14:04;;;;;;;;;0.00;0.00;;;;;22.08;65.58;100990.28;5038444;28;46249;-64
2022/04/09 05:16:29;;;;;;;;;0.00;0.00;;;;;22.08;65.75;100984.91;5038426;28;45426;-63
2022/04/09 05:18:55;;;;;;;;;0.00;0.00;;;;;22.09;65.61;100979.47;5037495;28;53061;-63
2022/04/09 05:21:20;;;;;;;;;0.00;0.00;;;;;22.08;65.64;100991.16;5038139;28;53279;-62
2022/04/09 05:23:45;;;;;;;;;0.00;0.00;;;;;22.06;65.50;100989.47;5037888;28;58305;-63
2022/04/09 05:26:11;;;;;;;;;0.00;0.00;;;;;22.07;65.28;100991.22;5038295;28;56931;-64
2022/04/09 05:28:37;;;;;;;;;0.00;0.00;;;;;22.06;65.84;101001.09;5038546;28;45590;-63
2022/04/09 05:31:03;;;;;;;;;0.00;0.00;;;;;22.07;65.77;101004.69;5038619;28;45594;-63
2022/04/09 05:33:28;;;;;;;;;1.00;0.00;;;;;22.05;65.52;101015.50;5028233;28;46545;-63
2022/04/09 05:35:54;;;;;;;;;0.00;0.00;;;;;22.06;65.65;101014.56;5038379;28;45339;-62
2022/04/09 05:38:20;;;;;;;;;0.00;0.00;;;;;22.05;65.73;101017.28;5020258;28;45287;-63
2022/04/09 05:40:45;;;;;;;;;0.00;0.00;;;;;22.06;65.77;101013.69;5026491;28;45558;-63
2022/04/09 05:43:11;;;;;;;;;1.33;1.00;;;;;22.04;65.67;101015.53;5037957;28;59765;-65
2022/04/09 05:45:37;;;;;;;;;0.00;0.00;;;;;22.04;65.42;101023.59;5037523;28;45388;-63
2022/04/09 05:48:03;;;;;;;;;0.00;0.00;;;;;22.04;66.01;101023.59;5038387;28;45189;-65
2022/04/09 05:50:29;;;;;;;;;0.00;0.00;;;;;22.03;65.60;101022.72;5038039;28;45428;-63
2022/04/09 05:52:54;;;;;;;;;0.00;0.00;;;;;22.04;65.59;101026.28;5037851;28;45974;-63
2022/04/09 05:55:20;;;;;;;;;0.00;0.00;;;;;22.03;65.69;101025.41;5038266;28;45286;-65
2022/04/09 05:57:45;;;;;;;;;0.00;0.00;;;;;22.03;65.58;101022.72;5038271;28;45522;-61
2022/04/09 06:00:13;;;;;;;;;0.00;0.00;;;;;22.03;65.96;101019.16;5030511;28;45411;-63
2022/04/09 06:02:39;;;;;;;;;0.00;0.00;;;;;22.01;65.44;101024.59;5038167;28;47762;-62
2022/04/09 06:05:06;;;;;;;;;0.00;0.00;;;;;22.03;65.94;101019.16;5050207;28;45205;-62
2022/04/09 06:07:31;;;;;;;;;0.00;0.00;;;;;22.00;65.77;101022.84;5037740;28;45518;-65
2022/04/09 06:09:57;;;;;;;;;1.33;0.00;;;;;22.00;65.63;101030.00;5030584;28;45548;-64
2022/04/09 06:12:23;;;;;;;;;1.00;0.00;;;;;21.97;65.62;101030.97;5031844;28;47690;-63
2022/04/09 06:14:48;;;;;;;;;1.00;0.00;;;;;21.98;65.57;101033.63;5037072;28;45282;-63
2022/04/09 06:17:14;;;;;;;;;0.00;0.00;;;;;21.98;65.75;101039.00;5037097;28;54570;-63
2022/04/09 06:19:39;;;;;;;;;0.67;0.67;;;;;22.00;65.42;101038.06;5037111;28;49600;-64
2022/04/09 06:22:04;;;;;;;;;0.00;0.00;;;;;21.99;65.55;101053.31;5003833;28;47731;-62
2022/04/09 06:24:30;;;;;;;;;0.00;0.00;;;;;21.97;65.25;101056.06;5029116;28;45402;-63
2022/04/09 06:26:55;;;;;;;;;0.00;0.00;;;;;21.98;65.69;101065.00;5037886;28;45380;-63
2022/04/09 06:29:20;;;;;;;;;0.00;0.00;;;;;21.98;65.51;101062.31;5035441;28;53087;-64
2022/04/09 06:31:47;;;;;;;;;0.00;0.00;;;;;21.97;65.51;101069.50;5037076;28;49641;-63
2022/04/09 06:34:15;;;;;;;;;1.00;1.00;;;;;21.96;65.35;101073.13;5037380;28;45449;-64
2022/04/09 06:36:41;;;;;;;;;0.00;0.00;;;;;21.96;65.54;101073.13;5037504;28;45408;-64
2022/04/09 06:39:06;;;;;;;;;0.00;0.00;;;;;21.96;65.70;101077.63;5030529;28;53348;-63
2022/04/09 06:41:33;;;;;;;;;0.00;0.00;;;;;21.96;65.42;101078.50;5031432;28;63538;-62
2022/04/09 06:43:58;;;;;;;;;0.00;0.00;;;;;21.95;65.56;101086.63;5036717;28;45468;-63
2022/04/09 06:46:24;;;;;;;;;0.00;0.00;;;;;21.95;66.03;101086.63;5028187;28;45250;-62
2022/04/09 06:48:49;;;;;;;;;1.67;0.00;;;;;21.93;65.39;101081.28;5036647;28;51365;-63
2022/04/09 06:51:15;;;;;;;;;1.33;1.00;;;;;21.96;65.81;101088.38;5036888;28;46579;-62
2022/04/09 06:53:40;;;;;;;;;2.00;1.00;;;;;21.93;65.91;101089.34;5030861;28;45465;-63
2022/04/09 06:56:05;;;;;;;;;3.33;1.00;;;;;21.95;65.83;101095.56;5037082;28;45826;-63
2022/04/09 06:58:32;;;;;;;;;1.00;1.00;;;;;21.96;65.59;101104.53;5037121;28;45424;-63
2022/04/09 07:00:58;;;;;;;;;1.00;1.00;;;;;21.95;65.97;101109.03;5037094;28;47026;-63
2022/04/09 07:03:24;;;;;;;;;1.00;1.00;;;;;21.95;65.75;101100.97;5044087;28;45286;-63
2022/04/09 07:05:49;;;;;;;;;3.00;1.00;;;;;21.95;65.81;101102.75;5043051;28;45395;-64
2022/04/09 07:08:14;;;;;;;;;1.00;1.00;;;;;21.95;65.47;101108.16;5033759;28;45365;-63
2022/04/09 07:10:40;;;;;;;;;1.00;1.00;;;;;21.93;65.57;101110.84;5024227;28;58902;-61
2022/04/09 07:13:05;;;;;;;;;1.00;1.00;;;;;21.96;65.48;101118.84;5027964;28;45531;-62
2022/04/09 07:15:32;;;;;;;;;3.00;1.00;;;;;21.97;65.76;101125.09;5030744;28;45494;-62
2022/04/09 07:17:57;;;;;;;;;1.00;1.00;;;;;21.98;65.72;101124.16;5032763;28;45431;-62
2022/04/09 07:20:23;;;;;;;;;2.00;2.00;;;;;21.97;65.46;101123.28;5029908;28;46522;-61
2022/04/09 07:22:48;;;;;;;;;1.33;1.00;;;;;21.99;65.45;101123.22;5028060;28;55279;-63
2022/04/09 07:25:14;;;;;;;;;1.67;1.00;;;;;21.98;65.53;101122.34;5029212;28;55304;-63
2022/04/09 07:27:41;;;;;;;;;1.00;1.00;;;;;22.02;65.71;101130.34;5034804;28;45523;-62
2022/04/09 07:30:15;;;;;;;;;0.67;0.67;;;;;21.98;65.73;101122.34;5036004;28;46745;-62
2022/04/09 07:32:41;;;;;;;;;1.33;1.00;;;;;22.04;65.96;101125.78;5005169;28;45532;-63
2022/04/09 07:35:07;;;;;;;;;1.00;1.00;;;;;22.04;65.67;101136.53;5033528;28;45528;-62
2022/04/09 07:37:32;;;;;;;;;1.67;1.00;;;;;22.07;65.54;101133.75;5027214;28;45373;-62
2022/04/09 07:39:58;;;;;;;;;1.00;1.00;;;;;22.11;65.49;101138.16;5029528;28;45738;-62
2022/04/09 07:42:23;;;;;;;;;1.00;1.00;;;;;22.14;65.30;101140.72;5030737;28;45632;-62
2022/04/09 07:44:49;;;;;;;;;2.00;1.00;;;;;22.16;65.59;101146.97;5029770;28;45573;-62
2022/04/09 07:47:15;;;;;;;;;2.00;1.00;;;;;22.17;65.53;101143.34;5031227;28;45416;-63
2022/04/09 07:49:44;;;;;;;;;1.00;1.00;;;;;22.21;65.28;101150.34;5021036;28;47838;-64
2022/04/09 07:52:11;;;;;;;;;1.00;1.00;;;;;22.21;65.18;101153.94;5028797;28;45351;-64
2022/04/09 07:54:36;;;;;;;;;0.00;0.00;;;;;22.24;65.18;101152.94;5030481;28;45399;-62
2022/04/09 07:57:02;;;;;;;;;1.00;1.00;;;;;22.25;65.51;101162.78;5035191;28;45503;-63
2022/04/09 07:59:27;;;;;;;;;1.00;1.00;;;;;22.28;64.86;101161.81;5035354;28;47841;-64
2022/04/09 08:01:53;;;;;;;;;1.00;1.00;;;;;22.30;65.40;101163.50;5034479;28;51167;-63
2022/04/09 08:04:18;;;;;;;;;2.00;1.00;;;;;22.31;65.12;101159.00;5023530;28;49345;-64
2022/04/09 08:06:43;;;;;;;;;1.00;1.00;;;;;22.31;65.07;101150.94;5020550;28;51731;-66
2022/04/09 08:09:09;;;;;;;;;2.33;1.67;;;;;22.34;65.53;101167.88;5035052;28;45961;-63
2022/04/09 08:11:34;;;;;;;;;1.33;1.00;;;;;22.35;65.23;101166.94;5035399;28;59496;-64
2022/04/09 08:14:00;;;;;;;;;1.00;1.00;;;;;22.36;65.44;101163.31;5036107;28;45339;-64
2022/04/09 08:16:25;;;;;;;;;4.67;1.67;;;;;22.37;65.07;101180.31;5036011;28;45335;-66
2022/04/09 08:18:51;;;;;;;;;1.00;1.00;;;;;22.36;65.19;101167.81;5035503;28;60341;-63
2022/04/09 08:21:18;;;;;;;;;1.00;0.00;;;;;22.37;64.69;101174.94;5037470;28;45214;-65
2022/04/09 08:23:43;;;;;;;;;2.00;1.00;;;;;22.38;65.17;101185.69;5039562;28;45443;-63
2022/04/09 08:26:09;;;;;;;;;3.00;0.00;;;;;22.37;65.04;101181.25;5029671;28;45474;-63
2022/04/09 08:28:36;;;;;;;;;1.00;1.00;;;;;22.39;64.92;101195.50;5038308;28;63314;-65
2022/04/09 08:31:02;;;;;;;;;1.00;1.00;;;;;22.38;65.07;101193.75;5035542;28;45313;-63
2022/04/09 08:33:27;;;;;;;;;1.00;1.00;;;;;22.37;65.12;101193.78;5021130;28;45573;-64
2022/04/09 08:35:53;;;;;;;;;0.33;0.33;;;;;22.37;64.97;101201.84;5030901;28;45666;-64
2022/04/09 08:38:18;;;;;;;;;0.33;0.33;;;;;22.36;64.90;101200.97;5012968;28;46332;-65
2022/04/09 08:40:45;;;;;;;;;0.00;0.00;;;;;22.36;65.27;101206.34;5033085;28;45489;-64
2022/04/09 08:43:11;;;;;;;;;1.00;1.00;;;;;22.34;64.85;101213.59;5034476;28;45567;-63
2022/04/09 08:45:40;;;;;;;;;1.00;1.00;;;;;22.36;65.29;101222.50;5034519;28;45444;-65
2022/04/09 08:48:07;;;;;;;;;1.00;1.00;;;;;22.35;64.95;101228.81;5034758;28;47555;-64
2022/04/09 08:50:33;;;;;;;;;1.00;1.00;;;;;22.34;64.84;101231.56;5034057;28;45488;-64
2022/04/09 08:53:02;;;;;;;;;2.00;1.00;;;;;22.33;64.75;101236.06;5031342;28;45600;-63
2022/04/09 08:55:28;;;;;;;;;1.00;1.00;;;;;22.35;64.88;101239.56;5033440;28;45347;-65
2022/04/09 08:57:53;;;;;;;;;1.00;1.00;;;;;22.32;64.52;101238.78;5015355;28;46652;-63
2022/04/09 09:00:20;;;;;;;;;0.67;0.67;;;;;22.36;64.58;101253.91;5027633;28;45450;-63
2022/04/09 09:02:56;;;;;;;;;1.00;1.00;;;;;22.33;64.57;101244.16;5034163;28;45606;-64
2022/04/09 09:05:34;;;;;;;;;1.00;1.00;;;;;22.32;64.73;101237.00;5034330;28;45846;-63
2022/04/09 09:08:00;;;;;;;;;0.00;0.00;;;;;22.33;64.47;101237.88;5032272;28;46872;-63
2022/04/09 09:10:26;;;;;;;;;0.67;0.00;;;;;22.33;64.87;101237.88;5034667;28;45411;-63
2022/04/09 09:13:04;;;;;;;;;0.00;0.00;;;;;22.34;64.57;101239.63;5016464;28;45491;-63
2022/04/09 09:15:30;;;;;;;;;3.00;0.33;;;;;22.31;64.44;101237.91;5034441;28;45448;-65
2022/04/09 09:17:59;;;;;;;;;0.00;0.00;;;;;22.34;64.70;101242.31;5034517;28;46247;-64
2022/04/09 09:20:25;;;;;;;;;1.00;0.00;;;;;22.32;64.59;101242.38;5033694;28;45589;-63
2022/04/09 09:22:52;;;;;;;;;1.00;1.00;;;;;22.32;64.53;101247.75;5023834;28;45467;-64
2022/04/09 09:25:18;;;;;;;;;1.00;1.00;;;;;22.31;64.46;101245.09;5022656;28;45250;-63
2022/04/09 09:27:43;;;;;;;;;3.00;1.00;;;;;22.33;64.42;101262.09;5033601;28;46563;-64
2022/04/09 09:30:11;;;;;;;;;1.00;1.00;;;;;22.31;64.69;101264.81;5033003;28;45437;-63
2022/04/09 09:32:38;;;;;;;;;0.33;0.33;;;;;22.30;64.47;101257.66;5018339;28;45291;-62
2022/04/09 09:35:05;;;;;;;;;2.00;0.00;;;;;22.31;64.16;101272.00;5037122;28;45570;-62
2022/04/09 09:37:31;;;;;;;;;0.67;0.67;;;;;22.30;64.16;101272.94;5038572;28;46414;-63
2022/04/09 09:39:57;;;;;;;;;1.00;1.00;;;;;22.31;64.72;101278.25;5020624;28;45301;-63
2022/04/09 09:42:24;;;;;;;;;1.00;1.00;;;;;22.30;64.41;101286.38;5014444;28;45288;-66
2022/04/09 09:44:50;;;;;;;;;0.33;0.33;;;;;22.29;64.45;101279.25;5018708;28;45388;-67
2022/04/09 09:47:16;;;;;;;;;1.00;1.00;;;;;22.31;64.23;101290.84;5012597;28;47019;-63
2022/04/09 09:49:58;;;;;;;;;2.00;0.67;;;;;22.28;64.71;101289.13;4998926;28;45289;-63
2022/04/09 09:52:25;;;;;;;;;1.00;1.00;;;;;22.28;64.58;101299.91;5010122;28;45543;-63
2022/04/09 09:55:10;;;;;;;;;1.00;1.00;;;;;22.28;64.18;101301.72;5014810;28;45591;-64
2022/04/09 09:57:38;;;;;;;;;1.33;1.00;;;;;22.25;64.36;101305.34;5016658;28;47843;-65
2022/04/09 10:00:06;;;;;;;;;1.33;1.00;;;;;22.27;64.55;101316.97;5017034;28;45399;-64
2022/04/09 10:02:32;;;;;;;;;1.00;0.67;;;;;22.27;64.33;101326.84;5016714;28;45401;-64
2022/04/09 10:04:57;;;;;;;;;0.00;0.00;;;;;22.26;64.59;101330.44;5004621;28;45510;-65
2022/04/09 10:07:24;;;;;;;;;1.00;1.00;;;;;22.26;64.80;101341.22;5013636;28;46773;-65
2022/04/09 10:09:50;;;;;;;;;1.00;1.00;;;;;22.25;64.46;101339.44;5013492;28;45420;-63
2022/04/09 10:12:20;;;;;;;;;1.00;1.00;;;;;22.24;64.31;101338.56;5015986;28;45387;-63
2022/04/09 10:15:04;;;;;;;;;0.00;0.00;;;;;22.23;64.47;101336.81;5016638;28;45395;-63
2022/04/09 10:17:29;;;;;;;;;0.00;0.00;;;;;22.23;64.52;101337.69;5015499;28;46574;-62
2022/04/09 10:19:56;;;;;;;;;1.00;1.00;;;;;22.26;64.79;101343.91;5014419;28;45446;-64
2022/04/09 10:22:24;;;;;;;;;0.00;0.00;;;;;22.25;64.51;101348.41;5014774;28;45340;-63
2022/04/09 10:24:50;;;;;;;;;1.00;1.00;;;;;22.24;64.47;101357.41;5011634;28;45498;-63
2022/04/09 10:27:39;;;;;;;;;0.33;0.33;;;;;22.25;64.52;101352.91;5009865;28;47384;-63
2022/04/09 10:30:24;;;;;;;;;1.00;1.00;;;;;22.23;64.80;101355.66;5015650;28;45162;-65
2022/04/09 10:33:00;;;;;;;;;2.00;1.00;;;;;22.23;64.62;101359.22;5001360;28;45568;-62
2022/04/09 10:35:39;;;;;;;;;0.67;0.67;;;;;22.23;64.59;101361.03;4997284;28;45511;-63
2022/04/09 10:38:07;;;;;;;;;2.00;0.67;;;;;22.26;64.51;101376.19;5004881;28;46299;-64
2022/04/09 10:40:33;;;;;;;;;2.00;1.00;;;;;22.23;64.39;101367.28;5016917;28;45374;-63
2022/04/09 10:42:59;;;;;;;;;0.00;0.00;;;;;22.25;64.17;101377.13;5033909;28;45206;-63
2022/04/09 10:45:25;;;;;;;;;1.00;1.00;;;;;22.25;64.70;101372.59;5019349;28;45454;-62
2022/04/09 10:48:11;;;;;;;;;2.00;1.00;;;;;22.26;64.38;101377.06;5037430;28;46684;-65
2022/04/09 10:50:54;;;;;;;;;3.00;1.00;;;;;22.25;64.50;101367.22;5036713;28;45159;-63
2022/04/09 10:53:24;;;;;;;;;0.00;0.00;;;;;22.26;64.31;101376.19;5029224;28;45369;-63
2022/04/09 10:56:09;;;;;;;;;0.67;0.67;;;;;22.26;64.58;101381.56;5033275;28;45376;-62
2022/04/09 10:58:58;;;;;;;;;0.00;0.00;;;;;22.25;64.23;101380.69;5032131;28;46390;-62
2022/04/09 11:01:49;;;;;;;;;0.00;0.00;;;;;22.26;64.36;101379.75;5035430;28;45284;-65
2022/04/09 11:04:31;;;;;;;;;0.67;0.67;;;;;22.25;64.64;101383.38;5037451;28;45238;-62
2022/04/09 11:07:02;;;;;;;;;1.67;1.00;;;;;22.25;64.83;101386.06;5026018;28;45381;-64
2022/04/09 11:09:50;;;;;;;;;2.00;1.00;;;;;22.23;64.57;101390.63;5034901;28;47276;-65
2022/04/09 11:12:27;;;;;;;;;0.00;0.00;;;;;22.24;64.71;101392.38;5036930;28;45319;-63
2022/04/09 11:14:58;;;;;;;;;1.00;1.00;;;;;22.25;64.35;101395.94;5034975;28;45235;-63
2022/04/09 11:17:28;;;;;;;;;0.00;0.00;;;;;22.25;64.58;101387.88;5031269;28;45282;-63
2022/04/09 11:19:54;;;;;;;;;0.00;0.00;;;;;22.24;64.47;101395.06;5031171;28;45946;-64
2022/04/09 11:22:20;;;;;;;;;0.00;0.00;;;;;22.25;64.36;101395.94;5031788;28;45456;-63
2022/04/09 11:24:45;;;;;;;;;1.00;1.00;;;;;22.25;64.74;101398.63;5034270;28;45211;-63
2022/04/09 11:27:11;;;;;;;;;0.00;0.00;;;;;22.25;64.53;101398.63;5035812;28;55375;-63
2022/04/09 11:29:41;;;;;;;;;0.67;0.67;;;;;22.24;64.54;101389.69;5033525;28;46662;-64